createdAt,value
2018-12-12T00:01:09.163Z,50.68
2018-12-12T00:03:38.507Z,50.64
2018-12-12T00:06:07.807Z,50.59
2018-12-12T00:08:37.191Z,50.27
2018-12-12T00:11:06.061Z,50.36
2018-12-12T00:13:35.497Z,50.24
2018-12-12T00:16:04.442Z,50.46
2018-12-12T00:18:33.306Z,50.31
2018-12-12T00:21:02.258Z,50.68
2018-12-12T00:23:31.313Z,50.15
2018-12-12T00:26:00.224Z,50.15
2018-12-12T00:28:29.239Z,50.50
2018-12-12T00:30:58.275Z,50.31
2018-12-12T00:33:27.095Z,50.23
2018-12-12T00:35:55.983Z,50.22
2018-12-12T00:38:25.667Z,50.25
2018-12-12T00:40:54.415Z,50.25
2018-12-12T00:43:23.295Z,50.38
2018-12-12T00:45:52.748Z,50.43
2018-12-12T00:48:21.791Z,50.14
2018-12-12T00:50:50.703Z,50.06
2018-12-12T00:53:19.650Z,50.45
2018-12-12T00:55:48.455Z,50.14
2018-12-12T00:58:17.655Z,50.52
2018-12-12T01:00:46.574Z,49.97
2018-12-12T01:03:15.531Z,49.98
2018-12-12T01:05:45.213Z,50.22
2018-12-12T01:08:14.317Z,49.99
2018-12-12T01:10:43.137Z,50.16
2018-12-12T01:13:12.253Z,50.25
2018-12-12T01:15:41.177Z,49.74
2018-12-12T01:18:10.156Z,50.49
2018-12-12T01:20:39.120Z,50.11
2018-12-12T01:23:08.628Z,49.64
2018-12-12T01:25:37.549Z,49.89
2018-12-12T01:28:06.311Z,50.14
2018-12-12T01:30:35.241Z,49.65
2018-12-12T01:33:05.302Z,50.38
2018-12-12T01:35:34.046Z,49.57
2018-12-12T01:38:03.310Z,49.75
2018-12-12T01:40:32.818Z,50.13
2018-12-12T01:43:01.804Z,49.68
2018-12-12T01:45:30.682Z,49.61
2018-12-12T01:48:00.370Z,49.94
2018-12-12T01:50:29.196Z,49.73
2018-12-12T01:52:58.226Z,49.87
2018-12-12T01:55:27.319Z,49.58
2018-12-12T01:57:56.178Z,49.61
2018-12-12T02:00:25.288Z,49.65
2018-12-12T02:02:54.800Z,50.05
2018-12-12T02:05:23.662Z,50.02
2018-12-12T02:07:52.740Z,49.61
2018-12-12T02:10:21.611Z,49.88
2018-12-12T02:13:01.931Z,49.88
2018-12-12T02:15:30.905Z,49.89
2018-12-12T02:17:59.827Z,49.62
2018-12-12T02:20:28.699Z,50.20
2018-12-12T02:22:57.618Z,49.73
2018-12-12T02:25:26.416Z,49.73
2018-12-12T02:27:55.658Z,49.71
2018-12-12T02:30:25.348Z,50.23
2018-12-12T02:32:54.784Z,49.46
2018-12-12T02:35:23.897Z,49.19
2018-12-12T02:37:53.901Z,49.36
2018-12-12T02:40:22.902Z,49.68
2018-12-12T02:42:52.098Z,49.49
2018-12-12T02:45:20.890Z,49.29
2018-12-12T02:47:50.000Z,49.31
2018-12-12T02:50:18.916Z,49.68
2018-12-12T02:52:48.706Z,49.43
2018-12-12T02:55:17.650Z,49.53
2018-12-12T02:57:46.919Z,49.70
2018-12-12T03:00:15.992Z,49.46
2018-12-12T03:02:45.893Z,49.72
2018-12-12T03:05:14.634Z,49.58
2018-12-12T03:07:43.591Z,49.66
2018-12-12T03:10:12.906Z,49.79
2018-12-12T03:12:41.830Z,49.58
2018-12-12T03:15:10.982Z,49.83
2018-12-12T03:17:39.986Z,49.79
2018-12-12T03:20:08.801Z,49.03
2018-12-12T03:22:37.655Z,49.55
2018-12-12T03:25:06.423Z,49.53
2018-12-12T03:27:35.352Z,49.40
2018-12-12T03:30:05.283Z,49.57
2018-12-12T03:32:34.176Z,49.47
2018-12-12T03:35:03.074Z,49.36
2018-12-12T03:37:32.089Z,49.62
2018-12-12T03:40:01.593Z,49.79
2018-12-12T03:42:31.620Z,49.20
2018-12-12T03:45:00.602Z,49.53
2018-12-12T03:47:29.358Z,49.54
2018-12-12T03:49:58.836Z,49.50
2018-12-12T03:52:28.352Z,49.91
2018-12-12T03:54:57.371Z,49.45
2018-12-12T03:57:26.559Z,49.16
2018-12-12T03:59:56.166Z,49.67
2018-12-12T04:02:25.137Z,49.38
2018-12-12T04:04:54.579Z,49.44
2018-12-12T04:07:24.085Z,49.24
2018-12-12T04:09:53.588Z,49.40
2018-12-12T04:12:22.660Z,49.57
2018-12-12T04:14:51.622Z,49.50
2018-12-12T04:17:20.914Z,49.44
2018-12-12T04:19:49.838Z,49.72
2018-12-12T04:22:19.200Z,49.43
2018-12-12T04:24:48.890Z,49.59
2018-12-12T04:27:17.767Z,49.63
2018-12-12T04:29:47.318Z,50.04
2018-12-12T04:32:16.221Z,50.04
2018-12-12T04:34:45.287Z,49.79
2018-12-12T04:37:14.356Z,49.49
2018-12-12T04:39:44.817Z,49.99
2018-12-12T04:42:14.099Z,49.68
2018-12-12T04:44:43.248Z,49.53
2018-12-12T04:47:13.009Z,49.60
2018-12-12T04:49:42.046Z,49.37
2018-12-12T04:52:11.055Z,49.53
2018-12-12T04:54:39.979Z,49.81
2018-12-12T04:57:08.902Z,49.82
2018-12-12T04:59:38.902Z,49.80
2018-12-12T05:02:08.535Z,49.68
2018-12-12T05:04:38.960Z,49.59
2018-12-12T05:07:07.980Z,49.63
2018-12-12T05:09:39.324Z,49.27
2018-12-12T05:12:08.660Z,49.82
2018-12-12T05:14:37.455Z,49.41
2018-12-12T05:17:06.496Z,49.91
2018-12-12T05:19:36.157Z,49.89
2018-12-12T05:22:04.894Z,49.88
2018-12-12T05:24:33.964Z,49.67
2018-12-12T05:27:02.902Z,49.79
2018-12-12T05:29:31.835Z,50.03
2018-12-12T05:32:01.232Z,49.82
2018-12-12T05:34:30.359Z,49.99
2018-12-12T05:37:00.526Z,49.73
2018-12-12T05:39:29.402Z,49.91
2018-12-12T05:41:58.755Z,49.43
2018-12-12T05:44:27.622Z,49.89
2018-12-12T05:46:56.649Z,49.43
2018-12-12T05:49:25.644Z,49.64
2018-12-12T05:51:55.417Z,49.70
2018-12-12T05:54:24.445Z,49.24
2018-12-12T05:56:53.794Z,49.29
2018-12-12T05:59:23.020Z,48.66
2018-12-12T06:01:55.314Z,49.33
2018-12-12T06:04:34.548Z,48.30
2018-12-12T06:07:04.027Z,48.83
2018-12-12T06:09:33.162Z,48.56
2018-12-12T06:12:02.314Z,48.37
2018-12-12T06:14:31.451Z,48.51
2018-12-12T06:17:00.414Z,47.70
2018-12-12T06:19:29.343Z,48.38
2018-12-12T06:21:58.511Z,48.20
2018-12-12T06:24:27.357Z,48.80
2018-12-12T06:26:56.897Z,48.01
2018-12-12T06:29:26.468Z,48.04
2018-12-12T06:31:56.276Z,48.36
2018-12-12T06:34:25.629Z,47.97
2018-12-12T06:36:54.842Z,48.14
2018-12-12T06:39:23.735Z,47.67
2018-12-12T06:41:52.920Z,47.53
2018-12-12T06:44:22.239Z,47.84
2018-12-12T06:46:51.247Z,47.46
2018-12-12T06:49:20.680Z,47.45
2018-12-12T06:51:51.561Z,47.49
2018-12-12T06:54:22.609Z,47.65
2018-12-12T06:56:51.563Z,47.81
2018-12-12T06:59:21.115Z,47.86
2018-12-12T07:01:50.006Z,47.65
2018-12-12T07:04:18.910Z,47.62
2018-12-12T07:06:47.637Z,48.08
2018-12-12T07:09:17.331Z,47.92
2018-12-12T07:11:46.330Z,47.94
2018-12-12T07:14:15.434Z,47.72
2018-12-12T07:16:44.325Z,47.60
2018-12-12T07:19:13.271Z,47.60
2018-12-12T07:21:42.586Z,47.94
2018-12-12T07:24:11.454Z,48.53
2018-12-12T07:26:40.367Z,48.09
2018-12-12T07:29:09.391Z,47.57
2018-12-12T07:31:38.221Z,48.12
2018-12-12T07:34:07.165Z,47.96
2018-12-12T07:36:36.079Z,48.21
2018-12-12T07:39:07.450Z,48.69
2018-12-12T07:41:36.809Z,48.41
2018-12-12T07:44:06.887Z,48.61
2018-12-12T07:46:36.391Z,48.59
2018-12-12T07:49:05.695Z,48.48
2018-12-12T07:51:35.455Z,48.28
2018-12-12T07:54:05.394Z,48.72
2018-12-12T07:56:34.399Z,48.95
2018-12-12T07:59:03.363Z,48.83
2018-12-12T08:01:32.435Z,48.24
2018-12-12T08:04:01.766Z,49.11
2018-12-12T08:06:30.619Z,48.93
2018-12-12T08:08:59.491Z,49.26
2018-12-12T08:11:30.149Z,49.07
2018-12-12T08:13:59.187Z,49.07
2018-12-12T08:16:28.015Z,48.75
2018-12-12T08:18:56.774Z,49.13
2018-12-12T08:21:25.749Z,49.46
2018-12-12T08:23:55.099Z,49.04
2018-12-12T08:26:23.978Z,49.30
2018-12-12T08:28:53.326Z,49.52
2018-12-12T08:31:22.146Z,49.52
2018-12-12T08:33:51.082Z,49.35
2018-12-12T08:36:20.357Z,49.54
2018-12-12T08:38:49.607Z,49.45
2018-12-12T08:41:19.065Z,49.19
2018-12-12T08:43:49.102Z,49.36
2018-12-12T08:46:18.170Z,49.53
2018-12-12T08:48:50.122Z,49.76
2018-12-12T08:51:21.515Z,49.65
2018-12-12T08:53:50.536Z,49.73
2018-12-12T08:56:19.273Z,49.79
2018-12-12T08:58:48.327Z,50.01
2018-12-12T09:01:17.679Z,50.08
2018-12-12T09:03:48.223Z,50.14
2018-12-12T09:06:19.336Z,50.43
2018-12-12T09:08:48.175Z,50.02
2018-12-12T09:11:16.934Z,50.45
2018-12-12T09:13:45.846Z,50.92
2018-12-12T09:16:15.513Z,50.59
2018-12-12T09:18:44.582Z,50.85
2018-12-12T09:21:14.752Z,50.90
2018-12-12T09:23:44.300Z,51.07
2018-12-12T09:26:13.926Z,51.51
2018-12-12T09:28:43.298Z,51.72
2018-12-12T09:31:12.373Z,51.71
2018-12-12T09:33:41.267Z,51.54
2018-12-12T09:36:10.309Z,51.94
2018-12-12T09:38:39.079Z,51.80
2018-12-12T09:41:08.211Z,51.58
2018-12-12T09:43:37.179Z,52.43
2018-12-12T09:46:06.792Z,52.05
2018-12-12T09:48:36.131Z,52.29
2018-12-12T09:51:07.301Z,52.26
2018-12-12T09:53:35.921Z,52.34
2018-12-12T09:56:04.803Z,52.48
2018-12-12T09:58:33.583Z,53.11
2018-12-12T10:01:02.491Z,53.26
2018-12-12T10:03:31.658Z,53.32
2018-12-12T10:06:00.920Z,53.45
2018-12-12T10:08:30.145Z,53.57
2018-12-12T10:10:59.471Z,53.72
2018-12-12T10:13:28.684Z,53.69
2018-12-12T10:15:57.955Z,53.62
2018-12-12T10:18:27.734Z,54.58
2018-12-12T10:20:57.470Z,53.87
2018-12-12T10:23:26.512Z,53.71
2018-12-12T10:25:55.711Z,53.28
2018-12-12T10:28:24.769Z,53.13
2018-12-12T10:30:53.678Z,52.82
2018-12-12T10:33:22.451Z,52.53
2018-12-12T10:35:51.600Z,52.92
2018-12-12T10:38:21.394Z,52.98
2018-12-12T10:40:50.810Z,53.07
2018-12-12T10:43:19.827Z,52.85
2018-12-12T10:45:49.105Z,53.26
2018-12-12T10:48:18.403Z,53.13
2018-12-12T10:50:47.484Z,53.13
2018-12-12T10:53:17.243Z,53.33
2018-12-12T10:55:47.182Z,53.40
2018-12-12T10:58:16.555Z,53.04
2018-12-12T11:00:51.102Z,53.26
2018-12-12T11:03:25.853Z,53.17
2018-12-12T11:05:54.667Z,53.13
2018-12-12T11:08:23.737Z,53.49
2018-12-12T11:10:52.650Z,53.42
2018-12-12T11:13:21.684Z,53.17
2018-12-12T11:15:50.803Z,53.39
2018-12-12T11:18:19.951Z,52.79
2018-12-12T11:20:49.671Z,53.04
2018-12-12T11:23:20.175Z,53.16
2018-12-12T11:25:52.041Z,53.29
2018-12-12T11:28:21.971Z,52.95
2018-12-12T11:30:51.198Z,53.06
2018-12-12T11:33:20.229Z,53.36
2018-12-12T11:35:49.375Z,52.89
2018-12-12T11:38:18.762Z,53.08
2018-12-12T11:40:47.656Z,53.10
2018-12-12T11:43:17.072Z,52.40
2018-12-12T11:45:45.836Z,52.95
2018-12-12T11:48:15.214Z,53.00
2018-12-12T11:50:44.108Z,53.07
2018-12-12T11:53:13.236Z,52.94
2018-12-12T11:55:42.331Z,53.06
2018-12-12T11:58:11.546Z,53.09
2018-12-12T12:00:40.813Z,52.97
2018-12-12T12:03:10.556Z,53.04
2018-12-12T12:05:40.573Z,52.74
2018-12-12T12:08:09.499Z,52.81
2018-12-12T12:10:38.824Z,52.56
2018-12-12T12:13:07.963Z,52.65
2018-12-12T12:15:37.244Z,52.87
2018-12-12T12:18:06.573Z,52.72
2018-12-12T12:20:36.107Z,52.36
2018-12-12T12:23:05.551Z,53.02
2018-12-12T12:25:34.820Z,53.25
2018-12-12T12:28:03.855Z,53.58
2018-12-12T12:30:32.911Z,52.81
2018-12-12T12:33:02.145Z,52.85
2018-12-12T12:35:32.269Z,52.41
2018-12-12T12:38:01.546Z,52.35
2018-12-12T12:40:30.991Z,52.18
2018-12-12T12:42:59.976Z,52.41
2018-12-12T12:45:29.303Z,51.99
2018-12-12T12:47:58.652Z,52.11
2018-12-12T12:50:28.211Z,52.12
2018-12-12T12:52:57.158Z,51.95
2018-12-12T12:55:25.979Z,52.11
2018-12-12T12:57:55.692Z,52.10
2018-12-12T13:00:24.659Z,52.02
2018-12-12T13:02:54.392Z,52.19
2018-12-12T13:05:24.018Z,52.37
2018-12-12T13:07:55.297Z,52.48
2018-12-12T13:10:25.211Z,51.67
2018-12-12T13:12:55.008Z,51.94
2018-12-12T13:15:24.796Z,51.54
2018-12-12T13:17:54.393Z,51.93
2018-12-12T13:20:23.979Z,52.06
2018-12-12T13:22:53.039Z,51.73
2018-12-12T13:25:22.746Z,51.90
2018-12-12T13:27:52.095Z,52.25
2018-12-12T13:30:21.835Z,51.54
2018-12-12T13:32:51.138Z,51.99
2018-12-12T13:35:20.311Z,51.82
2018-12-12T13:37:49.307Z,51.58
2018-12-12T13:40:18.558Z,51.93
2018-12-12T13:42:47.421Z,51.60
2018-12-12T13:45:16.523Z,51.70
2018-12-12T13:47:45.416Z,51.99
2018-12-12T13:50:14.367Z,51.99
2018-12-12T13:52:47.266Z,51.92
2018-12-12T13:55:16.942Z,51.83
2018-12-12T13:57:46.143Z,52.16
2018-12-12T14:00:14.970Z,51.96
2018-12-12T14:02:44.577Z,51.95
2018-12-12T14:05:13.876Z,52.04
2018-12-12T14:07:43.271Z,52.00
2018-12-12T14:10:12.669Z,52.06
2018-12-12T14:12:41.972Z,52.06
2018-12-12T14:15:11.387Z,52.37
2018-12-12T14:17:40.691Z,52.12
2018-12-12T14:20:09.857Z,52.07
2018-12-12T14:22:40.407Z,52.25
2018-12-12T14:25:09.722Z,52.05
2018-12-12T14:27:39.108Z,51.89
2018-12-12T14:30:10.256Z,51.96
2018-12-12T14:32:39.342Z,51.86
2018-12-12T14:35:08.375Z,52.07
2018-12-12T14:37:37.678Z,52.23
2018-12-12T14:40:07.821Z,51.82
2018-12-12T14:42:40.350Z,52.00
2018-12-12T14:45:18.415Z,52.17
2018-12-12T14:47:47.271Z,52.28
2018-12-12T14:50:16.481Z,51.99
2018-12-12T14:52:45.651Z,52.35
2018-12-12T14:55:15.177Z,52.70
2018-12-12T14:57:44.682Z,52.62
2018-12-12T15:00:15.020Z,52.63
2018-12-12T15:02:48.716Z,52.34
2018-12-12T15:05:17.815Z,52.75
2018-12-12T15:07:47.198Z,52.40
2018-12-12T15:10:18.244Z,52.45
2018-12-12T15:12:48.251Z,52.47
2018-12-12T15:15:17.176Z,52.25
2018-12-12T15:17:46.840Z,52.84
2018-12-12T15:20:16.374Z,53.30
2018-12-12T15:22:45.302Z,52.83
2018-12-12T15:25:15.340Z,53.34
2018-12-12T15:27:44.746Z,53.26
2018-12-12T15:30:13.673Z,53.99
2018-12-12T15:32:42.563Z,54.13
2018-12-12T15:35:13.005Z,53.76
2018-12-12T15:37:44.315Z,53.53
2018-12-12T15:40:13.783Z,53.84
2018-12-12T15:42:42.944Z,53.83
2018-12-12T15:45:11.926Z,53.63
2018-12-12T15:47:41.991Z,53.33
2018-12-12T15:50:10.983Z,53.21
2018-12-12T15:52:41.347Z,53.34
2018-12-12T15:55:14.573Z,53.07
2018-12-12T15:57:45.198Z,53.10
2018-12-12T16:00:15.690Z,53.07
2018-12-12T16:02:45.140Z,52.88
2018-12-12T16:05:14.788Z,53.02
2018-12-12T16:07:44.123Z,53.56
2018-12-12T16:10:13.171Z,53.34
2018-12-12T16:12:43.290Z,53.03
2018-12-12T16:15:12.891Z,53.86
2018-12-12T16:17:42.099Z,53.20
2018-12-12T16:20:11.232Z,53.74
2018-12-12T16:22:42.216Z,53.73
2018-12-12T16:25:11.422Z,54.00
2018-12-12T16:27:40.842Z,53.53
2018-12-12T16:30:10.321Z,53.81
2018-12-12T16:32:39.803Z,53.53
2018-12-12T16:35:09.531Z,53.66
2018-12-12T16:37:38.582Z,53.71
2018-12-12T16:40:08.961Z,53.63
2018-12-12T16:42:38.111Z,53.47
2018-12-12T16:45:07.052Z,53.69
2018-12-12T16:47:36.156Z,53.94
2018-12-12T16:50:05.820Z,54.55
2018-12-12T16:52:36.040Z,54.52
2018-12-12T16:55:06.269Z,53.98
2018-12-12T16:57:35.239Z,53.79
2018-12-12T17:00:06.462Z,53.78
2018-12-12T17:02:36.558Z,53.76
2018-12-12T17:05:06.295Z,53.34
2018-12-12T17:07:35.518Z,53.36
2018-12-12T17:10:05.003Z,53.86
2018-12-12T17:12:36.561Z,53.46
2018-12-12T17:15:07.839Z,53.33
2018-12-12T17:17:37.535Z,53.40
2018-12-12T17:20:08.321Z,53.71
2018-12-12T17:22:37.416Z,52.93
2018-12-12T17:25:07.179Z,53.21
2018-12-12T17:27:36.452Z,53.41
2018-12-12T17:30:06.750Z,53.19
2018-12-12T17:32:35.563Z,53.06
2018-12-12T17:35:08.769Z,53.28
2018-12-12T17:37:36.823Z,53.47
2018-12-12T17:40:06.336Z,53.59
2018-12-12T17:42:36.342Z,53.56
2018-12-12T17:45:05.465Z,53.24
2018-12-12T17:47:36.789Z,53.19
2018-12-12T17:50:06.292Z,53.18
2018-12-12T17:52:35.291Z,53.11
2018-12-12T17:55:06.445Z,53.11
2018-12-12T17:57:39.095Z,53.34
2018-12-12T18:00:09.077Z,53.16
2018-12-12T18:02:38.546Z,53.13
2018-12-12T18:05:07.904Z,53.23
2018-12-12T18:07:36.957Z,53.77
2018-12-12T18:10:06.153Z,53.75
2018-12-12T18:12:34.924Z,53.83
2018-12-12T18:15:04.367Z,53.78
2018-12-12T18:17:33.662Z,52.69
2018-12-12T18:20:03.290Z,51.86
2018-12-12T18:22:32.504Z,51.57
2018-12-12T18:25:01.410Z,51.99
2018-12-12T18:27:31.133Z,52.06
2018-12-12T18:30:00.893Z,52.22
2018-12-12T18:32:30.454Z,52.45
2018-12-12T18:35:00.106Z,52.88
2018-12-12T18:37:30.299Z,52.89
2018-12-12T18:40:00.211Z,53.11
2018-12-12T18:42:29.761Z,53.16
2018-12-12T18:44:59.096Z,53.04
2018-12-12T18:47:28.372Z,53.25
2018-12-12T18:49:57.894Z,53.58
2018-12-12T18:52:27.331Z,53.48
2018-12-12T18:54:56.629Z,53.52
2018-12-12T18:57:25.538Z,53.24
2018-12-12T18:59:54.862Z,54.06
2018-12-12T19:02:25.249Z,53.77
2018-12-12T19:04:55.835Z,53.96
2018-12-12T19:07:24.930Z,53.51
2018-12-12T19:09:54.107Z,53.70
2018-12-12T19:12:23.164Z,53.26
2018-12-12T19:14:57.942Z,53.33
2018-12-12T19:17:26.975Z,53.46
2018-12-12T19:19:57.775Z,52.79
2018-12-12T19:22:26.630Z,53.07
2018-12-12T19:24:56.046Z,52.91
2018-12-12T19:27:24.936Z,53.23
2018-12-12T19:29:55.129Z,51.72
2018-12-12T19:32:25.051Z,52.92
2018-12-12T19:34:54.057Z,52.67
2018-12-12T19:37:23.897Z,52.09
2018-12-12T19:39:53.262Z,51.87
2018-12-12T19:42:23.204Z,52.04
2018-12-12T19:44:52.395Z,51.49
2018-12-12T19:47:23.137Z,52.15
2018-12-12T19:49:55.059Z,51.30
2018-12-12T19:52:25.286Z,51.12
2018-12-12T19:54:54.734Z,52.01
2018-12-12T19:57:24.823Z,52.17
2018-12-12T19:59:54.464Z,52.47
2018-12-12T20:02:23.366Z,51.19
2018-12-12T20:04:52.891Z,50.68
2018-12-12T20:07:22.210Z,51.65
2018-12-12T20:09:51.778Z,52.31
2018-12-12T20:12:21.165Z,51.78
2018-12-12T20:14:50.146Z,51.72
2018-12-12T20:17:19.227Z,50.46
2018-12-12T20:19:48.360Z,51.72
2018-12-12T20:22:17.378Z,50.49
2018-12-12T20:24:47.523Z,49.92
2018-12-12T20:27:16.592Z,50.30
2018-12-12T20:29:45.944Z,51.34
2018-12-12T20:32:15.823Z,51.16
2018-12-12T20:34:45.273Z,49.75
2018-12-12T20:37:15.163Z,48.60
2018-12-12T20:39:44.443Z,49.95
2018-12-12T20:42:13.455Z,49.26
2018-12-12T20:44:42.308Z,48.96
2018-12-12T20:47:11.294Z,50.89
2018-12-12T20:49:41.160Z,50.78
2018-12-12T20:52:11.210Z,49.70
2018-12-12T20:54:40.863Z,49.84
2018-12-12T20:57:09.894Z,50.38
2018-12-12T20:59:39.532Z,49.37
2018-12-12T21:02:09.695Z,50.08
2018-12-12T21:04:40.259Z,50.54
2018-12-12T21:07:10.115Z,48.55
2018-12-12T21:09:40.333Z,48.94
2018-12-12T21:12:09.313Z,48.03
2018-12-12T21:14:38.309Z,47.88
2018-12-12T21:17:07.499Z,48.19
2018-12-12T21:19:37.086Z,47.90
2018-12-12T21:22:07.096Z,48.14
2018-12-12T21:24:36.505Z,49.61
2018-12-12T21:27:05.497Z,48.62
2018-12-12T21:29:34.531Z,49.74
2018-12-12T21:32:03.435Z,48.72
2018-12-12T21:34:33.235Z,49.70
2018-12-12T21:37:02.934Z,49.80
2018-12-12T21:39:31.825Z,49.68
2018-12-12T21:42:01.596Z,49.89
2018-12-12T21:44:30.847Z,49.28
2018-12-12T21:47:00.127Z,49.68
2018-12-12T21:49:29.497Z,49.94
2018-12-12T21:51:58.840Z,50.11
2018-12-12T21:54:28.085Z,49.86
2018-12-12T21:56:58.297Z,50.42
2018-12-12T21:59:27.281Z,50.59
2018-12-12T22:01:56.251Z,50.42
2018-12-12T22:04:25.287Z,50.40
2018-12-12T22:06:54.265Z,50.75
2018-12-12T22:09:23.417Z,50.80
2018-12-12T22:11:52.536Z,50.39
2018-12-12T22:14:22.156Z,50.52
2018-12-12T22:16:51.584Z,50.79
2018-12-12T22:19:20.465Z,51.18
2018-12-12T22:21:49.431Z,50.69
2018-12-12T22:24:18.712Z,50.36
2018-12-12T22:26:49.096Z,51.30
2018-12-12T22:29:19.460Z,51.13
2018-12-12T22:31:51.090Z,50.74
2018-12-12T22:34:24.219Z,51.46
2018-12-12T22:36:53.662Z,51.01
2018-12-12T22:39:23.477Z,51.15
2018-12-12T22:41:52.506Z,51.52
2018-12-12T22:44:21.664Z,51.29
2018-12-12T22:46:51.127Z,50.84
2018-12-12T22:49:20.487Z,51.28
2018-12-12T22:51:49.464Z,52.18
2018-12-12T22:54:18.895Z,51.66
2018-12-12T22:56:47.952Z,51.67
2018-12-12T22:59:17.226Z,51.82
2018-12-12T23:01:46.763Z,52.18
2018-12-12T23:04:15.870Z,51.79
2018-12-12T23:06:46.279Z,52.00
2018-12-12T23:09:15.536Z,52.07
2018-12-12T23:11:44.675Z,50.29
2018-12-12T23:14:14.439Z,50.14
2018-12-12T23:16:44.431Z,50.46
2018-12-12T23:19:13.711Z,50.68
2018-12-12T23:21:42.774Z,50.85
2018-12-12T23:24:12.081Z,50.76
2018-12-12T23:26:41.140Z,50.88
2018-12-12T23:29:11.210Z,51.16
2018-12-12T23:31:40.035Z,51.16
2018-12-12T23:34:11.468Z,51.13
2018-12-12T23:36:40.461Z,50.74
2018-12-12T23:39:09.480Z,50.67
2018-12-12T23:41:39.090Z,51.17
2018-12-12T23:44:08.466Z,51.17
2018-12-12T23:46:37.346Z,51.10
2018-12-12T23:49:06.280Z,51.03
2018-12-12T23:51:35.448Z,50.84
2018-12-12T23:54:04.374Z,50.83
2018-12-12T23:56:33.623Z,49.58
2018-12-12T23:59:02.646Z,50.87
